createdAt,value
2019-05-26T00:01:49.216Z,3.73
2019-05-26T00:04:35.799Z,4.23
2019-05-26T00:07:30.088Z,3.97
2019-05-26T00:10:11.083Z,4.17
2019-05-26T00:12:57.535Z,4.50
2019-05-26T00:15:43.701Z,4.33
2019-05-26T00:18:33.200Z,4.03
2019-05-26T00:21:18.217Z,4.10
2019-05-26T00:24:04.146Z,4.23
2019-05-26T00:26:50.588Z,3.63
2019-05-26T00:29:37.281Z,4.33
2019-05-26T00:32:23.825Z,4.60
2019-05-26T00:35:10.215Z,4.87
2019-05-26T00:37:56.836Z,4.47
2019-05-26T00:40:43.482Z,5.03
2019-05-26T00:43:29.669Z,5.23
2019-05-26T00:46:21.259Z,4.13
2019-05-26T00:49:08.110Z,4.83
2019-05-26T00:51:54.566Z,4.43
2019-05-26T00:54:40.886Z,4.00
2019-05-26T00:57:27.646Z,5.00
2019-05-26T01:00:14.700Z,4.40
2019-05-26T01:03:00.890Z,4.83
2019-05-26T01:05:47.176Z,4.80
2019-05-26T01:08:40.320Z,5.47
2019-05-26T01:11:42.545Z,6.33
2019-05-26T01:14:33.932Z,5.80
2019-05-26T01:18:02.637Z,5.37
2019-05-26T01:21:07.782Z,5.77
2019-05-26T01:24:04.966Z,6.00
2019-05-26T01:27:22.552Z,5.53
2019-05-26T01:30:52.924Z,5.40
2019-05-26T01:34:10.044Z,5.80
2019-05-26T01:37:25.425Z,5.63
2019-05-26T01:40:18.835Z,5.27
2019-05-26T01:46:28.149Z,6.30
2019-05-26T01:49:58.319Z,6.17
2019-05-26T01:52:44.271Z,6.20
2019-05-26T01:55:30.461Z,5.97
2019-05-26T01:58:16.428Z,6.13
2019-05-26T02:01:02.661Z,6.13
2019-05-26T02:03:48.766Z,6.33
2019-05-26T02:06:34.850Z,6.80
2019-05-26T02:09:21.055Z,6.90
2019-05-26T02:12:07.182Z,6.40
2019-05-26T02:14:53.264Z,7.27
2019-05-26T02:17:39.531Z,6.83
2019-05-26T02:20:25.753Z,6.90
2019-05-26T02:23:11.881Z,6.40
2019-05-26T02:25:58.199Z,5.50
2019-05-26T02:28:44.200Z,6.30
2019-05-26T02:31:30.540Z,7.40
2019-05-26T02:34:16.453Z,6.27
2019-05-26T02:37:02.732Z,7.00
2019-05-26T02:39:48.816Z,8.03
2019-05-26T02:42:34.855Z,8.57
2019-05-26T02:45:21.253Z,8.30
2019-05-26T02:48:07.490Z,9.47
2019-05-26T02:50:53.503Z,9.30
2019-05-26T02:53:39.728Z,10.13
2019-05-26T02:56:25.893Z,9.90
2019-05-26T02:59:11.825Z,9.73
2019-05-26T03:02:03.599Z,8.40
2019-05-26T03:04:46.562Z,9.37
2019-05-26T03:07:32.887Z,9.30
2019-05-26T03:10:18.726Z,9.10
2019-05-26T03:13:05.085Z,8.43
2019-05-26T03:15:51.194Z,10.67
2019-05-26T03:18:38.918Z,9.63
2019-05-26T03:21:25.657Z,9.97
2019-05-26T03:24:13.517Z,11.30
2019-05-26T03:26:59.782Z,9.47
2019-05-26T03:29:45.758Z,9.47
2019-05-26T03:32:31.918Z,9.47
2019-05-26T03:35:17.845Z,9.63
2019-05-26T03:38:04.113Z,9.40
2019-05-26T03:40:50.002Z,8.87
2019-05-26T03:43:36.135Z,9.13
2019-05-26T03:46:22.524Z,9.37
2019-05-26T03:49:09.214Z,9.03
2019-05-26T03:51:55.543Z,9.07
2019-05-26T03:54:41.556Z,8.40
2019-05-26T03:57:27.811Z,8.80
2019-05-26T04:00:14.541Z,7.90
2019-05-26T04:03:01.080Z,8.50
2019-05-26T04:05:47.199Z,7.87
2019-05-26T04:08:33.378Z,7.23
2019-05-26T04:11:19.542Z,8.50
2019-05-26T04:14:05.797Z,7.77
2019-05-26T04:16:52.211Z,7.13
2019-05-26T04:19:38.448Z,7.73
2019-05-26T04:22:24.606Z,7.73
2019-05-26T04:25:10.995Z,8.10
2019-05-26T04:27:57.284Z,8.73
2019-05-26T04:30:44.028Z,7.90
2019-05-26T04:33:30.616Z,7.80
2019-05-26T04:36:16.825Z,8.43
2019-05-26T04:39:05.170Z,8.37
2019-05-26T04:41:51.313Z,7.13
2019-05-26T04:44:37.475Z,8.10
2019-05-26T04:47:24.195Z,8.27
2019-05-26T04:50:10.624Z,7.83
2019-05-26T04:53:06.063Z,8.30
2019-05-26T04:55:45.478Z,7.63
2019-05-26T04:58:31.557Z,7.73
2019-05-26T05:01:18.111Z,8.50
2019-05-26T05:04:04.330Z,7.50
2019-05-26T05:06:50.775Z,8.27
2019-05-26T05:09:36.970Z,8.73
2019-05-26T05:12:23.326Z,9.93
2019-05-26T05:15:11.250Z,9.93
2019-05-26T05:17:57.675Z,9.70
2019-05-26T05:20:44.435Z,9.93
2019-05-26T05:23:30.901Z,10.17
2019-05-26T05:26:16.995Z,9.60
2019-05-26T05:29:03.666Z,10.57
2019-05-26T05:31:49.925Z,10.93
2019-05-26T05:34:36.204Z,11.20
2019-05-26T05:37:25.145Z,10.60
2019-05-26T05:40:13.431Z,11.00
2019-05-26T05:42:59.725Z,10.63
2019-05-26T05:45:45.830Z,10.67
2019-05-26T05:48:32.636Z,11.13
2019-05-26T05:51:19.073Z,10.73
2019-05-26T05:54:05.587Z,11.37
2019-05-26T05:56:55.490Z,11.13
2019-05-26T05:59:40.516Z,10.93
2019-05-26T06:02:26.851Z,10.43
2019-05-26T06:05:13.934Z,11.83
2019-05-26T06:08:00.014Z,10.63
2019-05-26T06:10:46.160Z,10.93
2019-05-26T06:13:32.871Z,10.03
2019-05-26T06:16:18.826Z,9.97
2019-05-26T06:19:05.166Z,9.70
2019-05-26T06:21:51.565Z,10.47
2019-05-26T06:24:37.682Z,10.03
2019-05-26T06:27:23.861Z,11.83
2019-05-26T06:30:10.589Z,12.13
2019-05-26T06:32:57.125Z,11.93
2019-05-26T06:35:43.320Z,13.00
2019-05-26T06:38:30.034Z,12.63
2019-05-26T06:41:32.394Z,13.90
2019-05-26T06:44:05.030Z,12.53
2019-05-26T06:46:51.376Z,11.87
2019-05-26T06:49:37.655Z,12.23
2019-05-26T06:52:23.926Z,12.20
2019-05-26T06:55:10.955Z,12.77
2019-05-26T06:57:57.496Z,12.57
2019-05-26T07:00:43.775Z,12.83
2019-05-26T07:03:30.138Z,12.70
2019-05-26T07:06:16.460Z,12.07
2019-05-26T07:09:04.420Z,14.37
2019-05-26T07:11:59.648Z,12.87
2019-05-26T07:14:38.600Z,14.00
2019-05-26T07:17:24.785Z,13.73
2019-05-26T07:20:11.002Z,14.17
2019-05-26T07:22:57.590Z,13.00
2019-05-26T07:25:43.845Z,13.27
2019-05-26T07:28:30.371Z,13.90
2019-05-26T07:31:16.615Z,14.27
2019-05-26T07:34:03.146Z,14.13
2019-05-26T07:36:49.467Z,14.13
2019-05-26T07:39:35.765Z,14.50
2019-05-26T07:42:21.988Z,14.97
2019-05-26T07:45:10.480Z,14.50
2019-05-26T07:47:56.947Z,14.67
2019-05-26T07:50:43.601Z,13.00
2019-05-26T07:53:29.976Z,14.90
2019-05-26T07:56:16.065Z,13.57
2019-05-26T07:59:02.863Z,13.83
2019-05-26T08:01:48.936Z,14.63
2019-05-26T08:04:35.153Z,14.13
2019-05-26T08:07:23.135Z,13.87
2019-05-26T08:10:11.196Z,14.33
2019-05-26T08:13:01.381Z,13.87
2019-05-26T08:15:48.122Z,14.23
2019-05-26T08:18:37.810Z,12.23
2019-05-26T08:21:24.791Z,12.57
2019-05-26T08:24:11.234Z,12.73
2019-05-26T08:26:57.865Z,12.83
2019-05-26T08:29:44.518Z,12.93
2019-05-26T08:32:30.900Z,13.53
2019-05-26T08:35:17.211Z,11.37
2019-05-26T08:38:06.071Z,11.17
2019-05-26T08:41:19.382Z,11.80
2019-05-26T08:48:29.814Z,12.13
2019-05-26T08:52:06.335Z,11.20
2019-05-26T08:55:18.550Z,11.27
2019-05-26T08:58:11.916Z,10.13
2019-05-26T09:01:10.151Z,11.47
2019-05-26T09:03:59.953Z,10.93
2019-05-26T09:07:04.779Z,11.67
2019-05-26T09:14:18.061Z,9.90
2019-05-26T09:17:57.503Z,10.47
2019-05-26T09:20:51.186Z,10.23
2019-05-26T09:24:10.473Z,10.97
2019-05-26T09:26:57.171Z,10.50
2019-05-26T09:29:54.417Z,11.07
2019-05-26T09:32:46.771Z,10.43
2019-05-26T09:39:47.344Z,9.67
2019-05-26T09:43:14.772Z,9.70
2019-05-26T09:46:29.174Z,9.70
2019-05-26T09:56:58.036Z,9.37
2019-05-26T10:00:23.931Z,9.43
2019-05-26T10:03:47.514Z,9.40
2019-05-26T10:07:01.865Z,10.53
2019-05-26T10:09:48.992Z,9.23
2019-05-26T10:12:57.308Z,8.50
2019-05-26T10:15:48.003Z,8.23
2019-05-26T10:18:57.681Z,8.30
2019-05-26T10:21:48.522Z,9.40
2019-05-26T10:24:59.378Z,8.97
2019-05-26T10:32:12.809Z,8.63
2019-05-26T10:39:10.139Z,8.00
2019-05-26T10:42:54.016Z,8.00
2019-05-26T10:46:09.839Z,7.50
2019-05-26T10:49:04.166Z,8.27
2019-05-26T10:51:59.154Z,8.13
2019-05-26T10:54:45.108Z,7.37
2019-05-26T10:57:35.737Z,8.00
2019-05-26T11:00:39.886Z,7.00
2019-05-26T11:03:29.330Z,6.10
2019-05-26T11:06:45.729Z,5.27
2019-05-26T11:09:12.991Z,5.93
2019-05-26T11:12:13.164Z,5.80
2019-05-26T11:15:17.973Z,6.43
2019-05-26T11:18:18.621Z,5.70
2019-05-26T11:21:28.577Z,5.50
2019-05-26T11:24:30.705Z,5.27
2019-05-26T11:27:23.692Z,4.87
2019-05-26T11:30:19.831Z,5.00
2019-05-26T11:33:54.425Z,3.80
2019-05-26T11:36:49.058Z,4.87
2019-05-26T11:39:46.459Z,5.10
2019-05-26T11:42:36.685Z,3.90
2019-05-26T11:45:28.057Z,4.10
2019-05-26T11:48:14.105Z,4.40
2019-05-26T11:51:13.926Z,4.50
2019-05-26T11:54:05.585Z,3.80
2019-05-26T11:56:51.943Z,3.63
2019-05-26T11:59:47.005Z,3.73
2019-05-26T12:02:34.943Z,4.30
2019-05-26T12:05:23.845Z,3.87
2019-05-26T12:08:12.844Z,3.80
2019-05-26T12:11:31.987Z,3.60
2019-05-26T12:14:34.405Z,3.90
2019-05-26T12:17:17.103Z,5.37
2019-05-26T12:20:13.924Z,3.87
2019-05-26T12:23:10.372Z,4.93
2019-05-26T12:26:12.766Z,3.53
2019-05-26T12:29:00.323Z,3.50
2019-05-26T12:31:56.437Z,3.93
2019-05-26T12:34:51.518Z,3.30
2019-05-26T12:38:10.737Z,3.27
2019-05-26T12:40:58.397Z,3.07
2019-05-26T12:43:44.759Z,3.27
2019-05-26T12:46:31.010Z,3.47
2019-05-26T12:49:17.122Z,2.70
2019-05-26T12:52:03.483Z,4.23
2019-05-26T12:54:50.062Z,2.33
2019-05-26T12:57:36.311Z,2.33
2019-05-26T13:00:22.921Z,2.20
2019-05-26T13:03:09.184Z,3.10
2019-05-26T13:05:55.241Z,3.70
2019-05-26T13:08:41.562Z,3.23
2019-05-26T13:11:28.049Z,3.30
2019-05-26T13:14:14.152Z,3.33
2019-05-26T13:17:01.656Z,3.07
2019-05-26T13:19:47.950Z,3.20
2019-05-26T13:22:34.611Z,3.37
2019-05-26T13:25:21.569Z,2.97
2019-05-26T13:28:07.803Z,2.83
2019-05-26T13:30:53.843Z,3.40
2019-05-26T13:33:40.106Z,3.30
2019-05-26T13:36:26.116Z,2.83
2019-05-26T13:39:12.383Z,3.07
2019-05-26T13:41:58.639Z,3.63
2019-05-26T13:44:44.806Z,2.80
2019-05-26T13:47:30.983Z,3.30
2019-05-26T13:50:17.636Z,3.70
2019-05-26T13:53:03.903Z,3.57
2019-05-26T13:55:49.993Z,3.30
2019-05-26T13:58:36.322Z,3.43
2019-05-26T14:01:22.363Z,3.73
2019-05-26T14:04:08.583Z,3.70
2019-05-26T14:06:54.950Z,3.87
2019-05-26T14:09:41.536Z,3.60
2019-05-26T14:12:27.728Z,3.50
2019-05-26T14:15:14.048Z,3.30
2019-05-26T14:18:00.432Z,3.10
2019-05-26T14:20:46.910Z,3.37
2019-05-26T14:23:33.409Z,3.53
2019-05-26T14:26:19.468Z,3.57
2019-05-26T14:29:05.990Z,4.03
2019-05-26T14:31:52.965Z,3.63
2019-05-26T14:34:39.812Z,3.27
2019-05-26T14:37:26.108Z,3.13
2019-05-26T14:40:12.288Z,3.30
2019-05-26T14:42:58.332Z,3.00
2019-05-26T14:45:52.808Z,2.50
2019-05-26T14:48:32.749Z,2.53
2019-05-26T14:51:19.009Z,2.07
2019-05-26T14:54:05.388Z,2.67
2019-05-26T14:56:51.429Z,2.70
2019-05-26T14:59:37.566Z,2.80
2019-05-26T15:02:23.786Z,2.70
2019-05-26T15:05:09.997Z,2.47
2019-05-26T15:07:56.207Z,2.20
2019-05-26T15:10:42.223Z,4.07
2019-05-26T15:13:28.384Z,18.97
2019-05-26T15:16:14.446Z,25.70
2019-05-26T15:19:00.903Z,16.60
2019-05-26T15:21:47.383Z,28.20
2019-05-26T15:24:33.523Z,13.57
2019-05-26T15:27:20.127Z,5.33
2019-05-26T15:30:08.483Z,7.00
2019-05-26T15:32:54.383Z,6.23
2019-05-26T15:35:40.623Z,3.70
2019-05-26T15:38:41.691Z,3.53
2019-05-26T15:41:15.203Z,4.00
2019-05-26T15:44:01.724Z,4.43
2019-05-26T15:46:47.926Z,4.10
2019-05-26T15:49:34.371Z,3.87
2019-05-26T15:52:20.823Z,4.10
2019-05-26T15:55:07.487Z,4.00
2019-05-26T15:57:53.689Z,5.23
2019-05-26T16:00:39.684Z,3.50
2019-05-26T16:03:25.764Z,3.97
2019-05-26T16:06:12.245Z,3.63
2019-05-26T16:08:58.563Z,3.73
2019-05-26T16:11:44.815Z,3.70
2019-05-26T16:14:31.063Z,3.57
2019-05-26T16:17:17.031Z,4.10
2019-05-26T16:20:04.047Z,5.60
2019-05-26T16:22:50.343Z,3.70
2019-05-26T16:25:36.503Z,9.67
2019-05-26T16:28:22.784Z,6.70
2019-05-26T16:31:12.031Z,6.03
2019-05-26T16:33:56.764Z,3.63
2019-05-26T16:36:43.104Z,3.47
2019-05-26T16:39:36.944Z,4.13
2019-05-26T16:42:17.303Z,3.93
2019-05-26T16:45:04.352Z,4.57
2019-05-26T16:47:50.691Z,3.67
2019-05-26T16:50:36.803Z,3.70
2019-05-26T16:53:23.054Z,3.80
2019-05-26T16:56:09.101Z,3.90
2019-05-26T16:58:55.188Z,3.90
2019-05-26T17:01:41.597Z,4.37
2019-05-26T17:04:27.609Z,4.10
2019-05-26T17:07:13.824Z,3.93
2019-05-26T17:10:00.159Z,3.70
2019-05-26T17:12:46.192Z,3.93
2019-05-26T17:15:32.524Z,4.10
2019-05-26T17:18:18.619Z,3.63
2019-05-26T17:21:04.813Z,3.57
2019-05-26T17:23:50.835Z,3.80
2019-05-26T17:26:37.624Z,3.67
2019-05-26T17:29:24.185Z,4.20
2019-05-26T17:32:11.064Z,4.10
2019-05-26T17:34:58.024Z,3.60
2019-05-26T17:37:44.236Z,3.97
2019-05-26T17:40:30.439Z,4.93
2019-05-26T17:43:19.006Z,5.70
2019-05-26T17:46:05.397Z,3.40
2019-05-26T17:48:51.452Z,4.00
2019-05-26T17:51:37.567Z,4.07
2019-05-26T17:54:23.661Z,4.00
2019-05-26T17:57:09.951Z,3.90
2019-05-26T17:59:56.026Z,4.27
2019-05-26T18:02:42.341Z,4.33
2019-05-26T18:05:28.528Z,3.60
2019-05-26T18:08:14.683Z,4.20
2019-05-26T18:11:00.894Z,4.00
2019-05-26T18:13:47.142Z,4.37
2019-05-26T18:16:33.221Z,4.00
2019-05-26T18:19:19.359Z,3.60
2019-05-26T18:22:08.052Z,3.90
2019-05-26T18:24:58.349Z,4.13
2019-05-26T18:27:42.526Z,4.40
2019-05-26T18:30:28.943Z,3.77
2019-05-26T18:33:15.037Z,3.90
2019-05-26T18:36:01.291Z,4.23
2019-05-26T18:38:47.672Z,3.73
2019-05-26T18:41:34.000Z,3.70
2019-05-26T18:44:20.257Z,3.90
2019-05-26T18:47:06.401Z,4.00
2019-05-26T18:49:52.316Z,4.33
2019-05-26T18:52:38.692Z,3.80
2019-05-26T18:55:24.587Z,4.27
2019-05-26T18:58:10.882Z,4.43
2019-05-26T19:00:57.302Z,4.50
2019-05-26T19:03:43.817Z,3.97
2019-05-26T19:06:29.901Z,4.20
2019-05-26T19:09:16.203Z,3.70
2019-05-26T19:12:02.679Z,4.20
2019-05-26T19:14:48.916Z,3.93
2019-05-26T19:17:35.875Z,4.00
2019-05-26T19:20:22.993Z,3.93
2019-05-26T19:23:09.392Z,4.17
2019-05-26T19:25:56.013Z,4.17
2019-05-26T19:28:42.627Z,5.07
2019-05-26T19:31:29.573Z,4.00
2019-05-26T19:34:16.440Z,4.57
2019-05-26T19:37:03.494Z,4.23
2019-05-26T19:39:50.202Z,4.73
2019-05-26T19:42:37.011Z,4.60
2019-05-26T19:45:23.332Z,4.03
2019-05-26T19:48:09.553Z,4.57
2019-05-26T19:50:56.412Z,4.87
2019-05-26T19:53:45.722Z,4.90
2019-05-26T19:56:31.977Z,4.50
2019-05-26T19:59:18.521Z,4.80
2019-05-26T20:02:17.786Z,5.00
2019-05-26T20:04:53.225Z,4.60
2019-05-26T20:07:41.276Z,5.53
2019-05-26T20:10:27.857Z,4.40
2019-05-26T20:13:14.051Z,4.90
2019-05-26T20:16:00.757Z,4.83
2019-05-26T20:18:47.595Z,4.57
2019-05-26T20:21:34.021Z,5.10
2019-05-26T20:24:20.569Z,5.13
2019-05-26T20:27:07.177Z,4.60
2019-05-26T20:29:53.516Z,4.50
2019-05-26T20:32:39.710Z,4.87
2019-05-26T20:35:26.367Z,4.10
2019-05-26T20:38:12.621Z,5.03
2019-05-26T20:40:58.798Z,4.43
2019-05-26T20:43:45.306Z,4.57
2019-05-26T20:46:31.939Z,4.40
2019-05-26T20:49:18.550Z,4.87
2019-05-26T20:52:04.872Z,4.60
2019-05-26T20:54:51.405Z,5.77
2019-05-26T20:57:38.211Z,4.80
2019-05-26T21:00:24.836Z,5.10
2019-05-26T21:03:11.353Z,4.40
2019-05-26T21:05:57.463Z,4.50
2019-05-26T21:08:44.121Z,4.73
2019-05-26T21:11:30.191Z,4.37
2019-05-26T21:14:16.731Z,4.77
2019-05-26T21:17:03.181Z,4.50
2019-05-26T21:19:49.346Z,4.77
2019-05-26T21:22:36.324Z,4.40
2019-05-26T21:25:22.706Z,4.53
2019-05-26T21:28:08.976Z,5.10
2019-05-26T21:30:55.112Z,5.03
2019-05-26T21:33:41.356Z,4.73
2019-05-26T21:36:27.871Z,5.00
2019-05-26T21:39:14.756Z,4.50
2019-05-26T21:42:01.387Z,4.77
2019-05-26T21:44:47.959Z,4.67
2019-05-26T21:47:34.756Z,5.27
2019-05-26T21:50:21.403Z,4.77
2019-05-26T21:53:07.835Z,5.47
2019-05-26T21:55:54.102Z,5.83
2019-05-26T21:58:40.427Z,4.80
2019-05-26T22:01:26.622Z,4.87
2019-05-26T22:04:13.147Z,4.80
2019-05-26T22:06:59.766Z,5.33
2019-05-26T22:09:46.026Z,4.90
2019-05-26T22:12:32.002Z,4.77
2019-05-26T22:15:18.637Z,5.30
2019-05-26T22:18:05.066Z,4.70
2019-05-26T22:20:51.372Z,4.67
2019-05-26T22:23:37.592Z,4.70
2019-05-26T22:26:24.102Z,4.80
2019-05-26T22:29:10.720Z,4.70
2019-05-26T22:31:56.778Z,5.10
2019-05-26T22:34:43.689Z,4.80
2019-05-26T22:37:29.642Z,4.70
2019-05-26T22:40:16.570Z,5.17
2019-05-26T22:43:03.182Z,5.00
2019-05-26T22:45:49.471Z,5.03
2019-05-26T22:48:35.687Z,4.80
2019-05-26T22:51:21.998Z,5.13
2019-05-26T22:54:09.217Z,5.03
2019-05-26T22:56:55.387Z,5.13
2019-05-26T22:59:42.097Z,4.80
2019-05-26T23:02:28.588Z,5.07
2019-05-26T23:05:14.956Z,5.10
2019-05-26T23:08:01.518Z,4.47
2019-05-26T23:10:47.826Z,4.67
2019-05-26T23:13:34.462Z,4.90
2019-05-26T23:16:21.002Z,4.67
2019-05-26T23:19:18.827Z,5.50
2019-05-26T23:21:55.439Z,5.27
2019-05-26T23:24:42.421Z,4.80
2019-05-26T23:27:28.756Z,5.37
2019-05-26T23:30:15.207Z,4.80
2019-05-26T23:33:01.712Z,5.30
2019-05-26T23:35:47.873Z,5.43
2019-05-26T23:38:34.080Z,5.53
2019-05-26T23:41:20.031Z,5.23
2019-05-26T23:44:06.169Z,5.77
2019-05-26T23:46:52.367Z,5.23
2019-05-26T23:49:39.028Z,5.10
2019-05-26T23:52:25.531Z,4.60
2019-05-26T23:55:11.681Z,4.70
2019-05-26T23:57:57.771Z,4.87
